sensor_id;sensor_type;location;lat;lon;timestamp;P1;durP1;ratioP1;P2;durP2;ratioP2
75537;SDS011;64121;48.666;8.114;2023-07-30T00:00:59;3.53;;;1.83;;
75537;SDS011;64121;48.666;8.114;2023-07-30T00:03:26;2.80;;;1.90;;
75537;SDS011;64121;48.666;8.114;2023-07-30T00:05:51;2.95;;;1.90;;
75537;SDS011;64121;48.666;8.114;2023-07-30T00:08:17;2.83;;;1.80;;
75537;SDS011;64121;48.666;8.114;2023-07-30T00:10:42;2.93;;;1.83;;
75537;SDS011;64121;48.666;8.114;2023-07-30T00:13:07;2.50;;;1.60;;
75537;SDS011;64121;48.666;8.114;2023-07-30T00:15:32;3.80;;;2.17;;
75537;SDS011;64121;48.666;8.114;2023-07-30T00:17:57;3.83;;;2.03;;
75537;SDS011;64121;48.666;8.114;2023-07-30T00:20:24;3.43;;;2.30;;
75537;SDS011;64121;48.666;8.114;2023-07-30T00:22:49;3.17;;;1.80;;
75537;SDS011;64121;48.666;8.114;2023-07-30T00:25:14;4.20;;;2.33;;
75537;SDS011;64121;48.666;8.114;2023-07-30T00:27:39;3.83;;;2.60;;
75537;SDS011;64121;48.666;8.114;2023-07-30T00:30:05;3.73;;;2.43;;
75537;SDS011;64121;48.666;8.114;2023-07-30T00:32:30;3.67;;;2.42;;
75537;SDS011;64121;48.666;8.114;2023-07-30T00:34:55;3.67;;;2.33;;
75537;SDS011;64121;48.666;8.114;2023-07-30T00:37:22;3.20;;;2.17;;
75537;SDS011;64121;48.666;8.114;2023-07-30T00:39:47;3.28;;;2.33;;
75537;SDS011;64121;48.666;8.114;2023-07-30T00:42:12;2.90;;;2.30;;
75537;SDS011;64121;48.666;8.114;2023-07-30T00:44:37;3.20;;;2.30;;
75537;SDS011;64121;48.666;8.114;2023-07-30T00:47:03;3.80;;;2.30;;
75537;SDS011;64121;48.666;8.114;2023-07-30T00:49:28;4.13;;;2.80;;
75537;SDS011;64121;48.666;8.114;2023-07-30T00:51:53;3.47;;;2.40;;
75537;SDS011;64121;48.666;8.114;2023-07-30T00:54:20;4.40;;;2.87;;
75537;SDS011;64121;48.666;8.114;2023-07-30T00:56:47;3.70;;;2.72;;
75537;SDS011;64121;48.666;8.114;2023-07-30T00:59:14;5.47;;;2.58;;
75537;SDS011;64121;48.666;8.114;2023-07-30T01:01:39;5.93;;;2.57;;
75537;SDS011;64121;48.666;8.114;2023-07-30T01:04:06;3.35;;;2.35;;
75537;SDS011;64121;48.666;8.114;2023-07-30T01:06:31;4.10;;;2.50;;
75537;SDS011;64121;48.666;8.114;2023-07-30T01:08:57;4.60;;;2.92;;
75537;SDS011;64121;48.666;8.114;2023-07-30T01:11:23;3.80;;;2.40;;
75537;SDS011;64121;48.666;8.114;2023-07-30T01:13:49;4.97;;;2.72;;
75537;SDS011;64121;48.666;8.114;2023-07-30T01:16:14;3.53;;;2.65;;
75537;SDS011;64121;48.666;8.114;2023-07-30T01:18:39;3.53;;;2.42;;
75537;SDS011;64121;48.666;8.114;2023-07-30T01:21:06;3.70;;;2.83;;
75537;SDS011;64121;48.666;8.114;2023-07-30T01:23:31;4.32;;;2.47;;
75537;SDS011;64121;48.666;8.114;2023-07-30T01:25:59;3.80;;;2.70;;
75537;SDS011;64121;48.666;8.114;2023-07-30T01:28:25;3.50;;;2.17;;
75537;SDS011;64121;48.666;8.114;2023-07-30T01:30:52;3.63;;;2.65;;
75537;SDS011;64121;48.666;8.114;2023-07-30T01:33:17;5.75;;;2.40;;
75537;SDS011;64121;48.666;8.114;2023-07-30T01:35:43;4.07;;;2.50;;
75537;SDS011;64121;48.666;8.114;2023-07-30T01:38:10;3.58;;;2.55;;
75537;SDS011;64121;48.666;8.114;2023-07-30T01:40:35;5.03;;;2.90;;
75537;SDS011;64121;48.666;8.114;2023-07-30T01:43:00;3.50;;;2.37;;
75537;SDS011;64121;48.666;8.114;2023-07-30T01:45:26;3.43;;;2.47;;
75537;SDS011;64121;48.666;8.114;2023-07-30T01:47:51;3.37;;;2.20;;
75537;SDS011;64121;48.666;8.114;2023-07-30T01:50:16;4.47;;;2.43;;
75537;SDS011;64121;48.666;8.114;2023-07-30T01:52:41;3.10;;;2.13;;
75537;SDS011;64121;48.666;8.114;2023-07-30T01:55:08;4.00;;;2.10;;
75537;SDS011;64121;48.666;8.114;2023-07-30T01:57:33;3.03;;;2.13;;
75537;SDS011;64121;48.666;8.114;2023-07-30T01:59:59;3.10;;;2.07;;
75537;SDS011;64121;48.666;8.114;2023-07-30T02:02:24;3.13;;;2.20;;
75537;SDS011;64121;48.666;8.114;2023-07-30T02:04:49;3.87;;;2.20;;
75537;SDS011;64121;48.666;8.114;2023-07-30T02:07:14;3.83;;;2.37;;
75537;SDS011;64121;48.666;8.114;2023-07-30T02:09:39;3.33;;;2.23;;
75537;SDS011;64121;48.666;8.114;2023-07-30T02:12:07;4.77;;;2.63;;
75537;SDS011;64121;48.666;8.114;2023-07-30T02:14:32;4.13;;;2.40;;
75537;SDS011;64121;48.666;8.114;2023-07-30T02:16:57;5.07;;;2.23;;
75537;SDS011;64121;48.666;8.114;2023-07-30T02:19:22;4.40;;;2.20;;
75537;SDS011;64121;48.666;8.114;2023-07-30T02:21:47;3.10;;;2.37;;
75537;SDS011;64121;48.666;8.114;2023-07-30T02:24:13;3.17;;;2.23;;
75537;SDS011;64121;48.666;8.114;2023-07-30T02:26:38;4.97;;;2.60;;
75537;SDS011;64121;48.666;8.114;2023-07-30T02:29:04;2.67;;;1.80;;
75537;SDS011;64121;48.666;8.114;2023-07-30T02:31:29;3.35;;;1.80;;
75537;SDS011;64121;48.666;8.114;2023-07-30T02:33:55;3.67;;;2.20;;
75537;SDS011;64121;48.666;8.114;2023-07-30T02:36:20;3.57;;;2.17;;
75537;SDS011;64121;48.666;8.114;2023-07-30T02:38:45;2.60;;;1.90;;
75537;SDS011;64121;48.666;8.114;2023-07-30T02:41:10;2.70;;;1.67;;
75537;SDS011;64121;48.666;8.114;2023-07-30T02:43:35;2.80;;;1.90;;
75537;SDS011;64121;48.666;8.114;2023-07-30T02:46:02;2.93;;;2.10;;
75537;SDS011;64121;48.666;8.114;2023-07-30T02:48:27;3.17;;;2.05;;
75537;SDS011;64121;48.666;8.114;2023-07-30T02:50:52;3.90;;;2.17;;
75537;SDS011;64121;48.666;8.114;2023-07-30T02:53:17;5.23;;;1.97;;
75537;SDS011;64121;48.666;8.114;2023-07-30T02:55:42;2.90;;;2.00;;
75537;SDS011;64121;48.666;8.114;2023-07-30T02:58:08;3.80;;;1.97;;
75537;SDS011;64121;48.666;8.114;2023-07-30T03:00:33;3.97;;;2.00;;
75537;SDS011;64121;48.666;8.114;2023-07-30T03:02:59;3.00;;;1.97;;
75537;SDS011;64121;48.666;8.114;2023-07-30T03:05:25;3.50;;;1.80;;
75537;SDS011;64121;48.666;8.114;2023-07-30T03:07:51;4.13;;;1.80;;
75537;SDS011;64121;48.666;8.114;2023-07-30T03:10:16;3.47;;;1.87;;
75537;SDS011;64121;48.666;8.114;2023-07-30T03:12:41;2.73;;;1.87;;
75537;SDS011;64121;48.666;8.114;2023-07-30T03:15:06;3.43;;;1.83;;
75537;SDS011;64121;48.666;8.114;2023-07-30T03:17:32;2.30;;;1.60;;
75537;SDS011;64121;48.666;8.114;2023-07-30T03:19:58;2.90;;;1.60;;
75537;SDS011;64121;48.666;8.114;2023-07-30T03:22:23;3.15;;;1.55;;
75537;SDS011;64121;48.666;8.114;2023-07-30T03:24:49;2.43;;;1.50;;
75537;SDS011;64121;48.666;8.114;2023-07-30T03:27:14;3.10;;;1.73;;
75537;SDS011;64121;48.666;8.114;2023-07-30T03:29:39;2.70;;;1.60;;
75537;SDS011;64121;48.666;8.114;2023-07-30T03:32:04;2.60;;;1.47;;
75537;SDS011;64121;48.666;8.114;2023-07-30T03:34:30;2.35;;;1.52;;
75537;SDS011;64121;48.666;8.114;2023-07-30T03:36:56;2.67;;;1.60;;
75537;SDS011;64121;48.666;8.114;2023-07-30T03:39:21;2.55;;;1.45;;
75537;SDS011;64121;48.666;8.114;2023-07-30T03:41:47;2.93;;;1.40;;
75537;SDS011;64121;48.666;8.114;2023-07-30T03:44:12;2.90;;;1.50;;
75537;SDS011;64121;48.666;8.114;2023-07-30T03:46:37;3.43;;;1.57;;
75537;SDS011;64121;48.666;8.114;2023-07-30T03:49:02;2.23;;;1.40;;
75537;SDS011;64121;48.666;8.114;2023-07-30T03:51:27;2.47;;;1.37;;
75537;SDS011;64121;48.666;8.114;2023-07-30T03:53:54;5.17;;;1.53;;
75537;SDS011;64121;48.666;8.114;2023-07-30T03:56:19;2.47;;;1.30;;
75537;SDS011;64121;48.666;8.114;2023-07-30T03:58:44;2.23;;;1.33;;
75537;SDS011;64121;48.666;8.114;2023-07-30T04:01:09;1.77;;;1.10;;
75537;SDS011;64121;48.666;8.114;2023-07-30T04:03:34;2.70;;;1.30;;
75537;SDS011;64121;48.666;8.114;2023-07-30T04:06:00;2.30;;;1.37;;
75537;SDS011;64121;48.666;8.114;2023-07-30T04:08:25;2.05;;;1.20;;
75537;SDS011;64121;48.666;8.114;2023-07-30T04:10:51;2.67;;;1.53;;
75537;SDS011;64121;48.666;8.114;2023-07-30T04:13:17;2.00;;;1.30;;
75537;SDS011;64121;48.666;8.114;2023-07-30T04:15:42;2.37;;;1.30;;
75537;SDS011;64121;48.666;8.114;2023-07-30T04:18:07;3.43;;;1.40;;
75537;SDS011;64121;48.666;8.114;2023-07-30T04:20:32;2.63;;;1.50;;
75537;SDS011;64121;48.666;8.114;2023-07-30T04:22:57;2.67;;;1.80;;
75537;SDS011;64121;48.666;8.114;2023-07-30T04:25:22;3.27;;;1.70;;
75537;SDS011;64121;48.666;8.114;2023-07-30T04:27:49;3.17;;;1.63;;
75537;SDS011;64121;48.666;8.114;2023-07-30T04:30:14;3.10;;;1.60;;
75537;SDS011;64121;48.666;8.114;2023-07-30T04:32:39;3.90;;;1.83;;
75537;SDS011;64121;48.666;8.114;2023-07-30T04:35:05;2.13;;;1.53;;
75537;SDS011;64121;48.666;8.114;2023-07-30T04:37:30;3.08;;;1.55;;
75537;SDS011;64121;48.666;8.114;2023-07-30T04:39:56;2.83;;;1.77;;
75537;SDS011;64121;48.666;8.114;2023-07-30T04:42:21;2.83;;;1.50;;
75537;SDS011;64121;48.666;8.114;2023-07-30T04:44:48;3.50;;;1.90;;
75537;SDS011;64121;48.666;8.114;2023-07-30T04:47:13;2.78;;;1.70;;
75537;SDS011;64121;48.666;8.114;2023-07-30T04:49:38;3.23;;;1.70;;
75537;SDS011;64121;48.666;8.114;2023-07-30T04:52:03;3.37;;;2.17;;
75537;SDS011;64121;48.666;8.114;2023-07-30T04:54:28;2.80;;;1.80;;
75537;SDS011;64121;48.666;8.114;2023-07-30T04:56:54;2.83;;;1.93;;
75537;SDS011;64121;48.666;8.114;2023-07-30T04:59:19;3.93;;;2.07;;
75537;SDS011;64121;48.666;8.114;2023-07-30T05:01:45;2.70;;;1.70;;
75537;SDS011;64121;48.666;8.114;2023-07-30T05:04:10;2.70;;;1.85;;
75537;SDS011;64121;48.666;8.114;2023-07-30T05:06:36;3.00;;;1.87;;
75537;SDS011;64121;48.666;8.114;2023-07-30T05:09:01;2.90;;;2.07;;
75537;SDS011;64121;48.666;8.114;2023-07-30T05:11:26;3.20;;;2.03;;
75537;SDS011;64121;48.666;8.114;2023-07-30T05:13:51;3.00;;;1.80;;
75537;SDS011;64121;48.666;8.114;2023-07-30T05:16:16;3.23;;;1.80;;
75537;SDS011;64121;48.666;8.114;2023-07-30T05:18:43;2.67;;;1.77;;
75537;SDS011;64121;48.666;8.114;2023-07-30T05:21:08;2.67;;;1.67;;
75537;SDS011;64121;48.666;8.114;2023-07-30T05:23:33;4.10;;;1.97;;
75537;SDS011;64121;48.666;8.114;2023-07-30T05:25:58;4.20;;;1.70;;
75537;SDS011;64121;48.666;8.114;2023-07-30T05:28:24;2.87;;;1.50;;
75537;SDS011;64121;48.666;8.114;2023-07-30T05:30:49;2.27;;;1.60;;
75537;SDS011;64121;48.666;8.114;2023-07-30T05:33:14;2.60;;;1.80;;
75537;SDS011;64121;48.666;8.114;2023-07-30T05:35:41;3.20;;;1.53;;
75537;SDS011;64121;48.666;8.114;2023-07-30T05:38:06;4.00;;;2.45;;
75537;SDS011;64121;48.666;8.114;2023-07-30T05:40:31;3.33;;;1.70;;
75537;SDS011;64121;48.666;8.114;2023-07-30T05:42:56;3.43;;;1.70;;
75537;SDS011;64121;48.666;8.114;2023-07-30T05:45:21;2.30;;;1.50;;
75537;SDS011;64121;48.666;8.114;2023-07-30T05:47:46;3.07;;;1.80;;
75537;SDS011;64121;48.666;8.114;2023-07-30T05:50:12;2.67;;;1.60;;
75537;SDS011;64121;48.666;8.114;2023-07-30T05:52:38;2.70;;;1.90;;
75537;SDS011;64121;48.666;8.114;2023-07-30T05:55:04;3.70;;;1.70;;
75537;SDS011;64121;48.666;8.114;2023-07-30T05:57:29;3.40;;;1.95;;
75537;SDS011;64121;48.666;8.114;2023-07-30T05:59:55;3.30;;;2.15;;
75537;SDS011;64121;48.666;8.114;2023-07-30T06:02:20;2.67;;;1.80;;
75537;SDS011;64121;48.666;8.114;2023-07-30T06:04:45;4.50;;;2.10;;
75537;SDS011;64121;48.666;8.114;2023-07-30T06:07:10;2.97;;;2.00;;
75537;SDS011;64121;48.666;8.114;2023-07-30T06:09:37;3.30;;;2.20;;
75537;SDS011;64121;48.666;8.114;2023-07-30T06:12:02;3.38;;;1.75;;
75537;SDS011;64121;48.666;8.114;2023-07-30T06:14:27;3.15;;;2.03;;
75537;SDS011;64121;48.666;8.114;2023-07-30T06:16:53;2.67;;;1.80;;
75537;SDS011;64121;48.666;8.114;2023-07-30T06:19:18;2.95;;;2.03;;
75537;SDS011;64121;48.666;8.114;2023-07-30T06:21:43;3.27;;;2.10;;
75537;SDS011;64121;48.666;8.114;2023-07-30T06:24:09;2.70;;;1.73;;
75537;SDS011;64121;48.666;8.114;2023-07-30T06:26:35;2.97;;;1.80;;
75537;SDS011;64121;48.666;8.114;2023-07-30T06:29:00;3.00;;;1.73;;
75537;SDS011;64121;48.666;8.114;2023-07-30T06:31:26;3.10;;;1.90;;
75537;SDS011;64121;48.666;8.114;2023-07-30T06:33:51;2.87;;;1.60;;
75537;SDS011;64121;48.666;8.114;2023-07-30T06:36:16;2.93;;;1.63;;
75537;SDS011;64121;48.666;8.114;2023-07-30T06:38:41;2.77;;;1.47;;
75537;SDS011;64121;48.666;8.114;2023-07-30T06:41:06;3.73;;;1.57;;
75537;SDS011;64121;48.666;8.114;2023-07-30T06:43:33;3.17;;;1.80;;
75537;SDS011;64121;48.666;8.114;2023-07-30T06:45:58;3.42;;;1.50;;
75537;SDS011;64121;48.666;8.114;2023-07-30T06:48:23;3.63;;;1.55;;
75537;SDS011;64121;48.666;8.114;2023-07-30T06:50:48;2.67;;;1.50;;
75537;SDS011;64121;48.666;8.114;2023-07-30T06:53:14;2.30;;;1.40;;
75537;SDS011;64121;48.666;8.114;2023-07-30T06:55:39;2.43;;;1.50;;
75537;SDS011;64121;48.666;8.114;2023-07-30T06:58:04;2.80;;;1.43;;
75537;SDS011;64121;48.666;8.114;2023-07-30T07:00:30;2.47;;;1.50;;
75537;SDS011;64121;48.666;8.114;2023-07-30T07:02:56;3.38;;;1.50;;
75537;SDS011;64121;48.666;8.114;2023-07-30T07:05:21;3.07;;;1.50;;
75537;SDS011;64121;48.666;8.114;2023-07-30T07:07:46;2.40;;;1.42;;
75537;SDS011;64121;48.666;8.114;2023-07-30T07:10:11;2.23;;;1.17;;
75537;SDS011;64121;48.666;8.114;2023-07-30T07:12:37;2.22;;;1.58;;
75537;SDS011;64121;48.666;8.114;2023-07-30T07:15:02;2.33;;;1.40;;
75537;SDS011;64121;48.666;8.114;2023-07-30T07:17:29;1.75;;;1.23;;
75537;SDS011;64121;48.666;8.114;2023-07-30T07:19:54;3.38;;;1.80;;
75537;SDS011;64121;48.666;8.114;2023-07-30T07:22:19;3.07;;;1.37;;
75537;SDS011;64121;48.666;8.114;2023-07-30T07:24:44;3.27;;;1.90;;
75537;SDS011;64121;48.666;8.114;2023-07-30T07:27:10;2.60;;;1.60;;
75537;SDS011;64121;48.666;8.114;2023-07-30T07:29:35;2.87;;;1.50;;
75537;SDS011;64121;48.666;8.114;2023-07-30T07:32:00;2.77;;;1.37;;
75537;SDS011;64121;48.666;8.114;2023-07-30T07:34:27;2.65;;;1.77;;
75537;SDS011;64121;48.666;8.114;2023-07-30T07:36:52;3.65;;;1.60;;
75537;SDS011;64121;48.666;8.114;2023-07-30T07:39:17;2.70;;;1.60;;
75537;SDS011;64121;48.666;8.114;2023-07-30T07:41:42;2.47;;;1.50;;
75537;SDS011;64121;48.666;8.114;2023-07-30T07:44:07;3.83;;;1.80;;
75537;SDS011;64121;48.666;8.114;2023-07-30T07:46:33;3.13;;;1.87;;
75537;SDS011;64121;48.666;8.114;2023-07-30T07:48:58;3.07;;;1.67;;
75537;SDS011;64121;48.666;8.114;2023-07-30T07:51:24;6.10;;;2.10;;
75537;SDS011;64121;48.666;8.114;2023-07-30T07:53:50;3.17;;;2.10;;
75537;SDS011;64121;48.666;8.114;2023-07-30T07:56:15;3.90;;;1.93;;
75537;SDS011;64121;48.666;8.114;2023-07-30T07:58:40;4.17;;;2.07;;
75537;SDS011;64121;48.666;8.114;2023-07-30T08:01:05;3.47;;;2.53;;
75537;SDS011;64121;48.666;8.114;2023-07-30T08:03:30;2.53;;;1.90;;
75537;SDS011;64121;48.666;8.114;2023-07-30T08:05:55;2.87;;;1.90;;
75537;SDS011;64121;48.666;8.114;2023-07-30T08:08:23;4.30;;;1.90;;
75537;SDS011;64121;48.666;8.114;2023-07-30T08:10:48;2.58;;;1.80;;
75537;SDS011;64121;48.666;8.114;2023-07-30T08:13:14;3.10;;;2.10;;
75537;SDS011;64121;48.666;8.114;2023-07-30T08:15:39;3.20;;;2.10;;
75537;SDS011;64121;48.666;8.114;2023-07-30T08:18:04;3.30;;;1.77;;
75537;SDS011;64121;48.666;8.114;2023-07-30T08:20:29;3.92;;;2.03;;
75537;SDS011;64121;48.666;8.114;2023-07-30T08:22:55;3.00;;;2.37;;
75537;SDS011;64121;48.666;8.114;2023-07-30T08:25:21;3.00;;;1.90;;
75537;SDS011;64121;48.666;8.114;2023-07-30T08:27:46;2.78;;;1.80;;
75537;SDS011;64121;48.666;8.114;2023-07-30T08:30:12;5.77;;;1.90;;
75537;SDS011;64121;48.666;8.114;2023-07-30T08:32:37;3.80;;;2.03;;
75537;SDS011;64121;48.666;8.114;2023-07-30T08:35:03;4.20;;;1.90;;
75537;SDS011;64121;48.666;8.114;2023-07-30T08:37:28;2.53;;;1.70;;
75537;SDS011;64121;48.666;8.114;2023-07-30T08:39:53;4.40;;;1.97;;
75537;SDS011;64121;48.666;8.114;2023-07-30T08:42:19;2.73;;;1.60;;
75537;SDS011;64121;48.666;8.114;2023-07-30T08:44:45;3.72;;;2.00;;
75537;SDS011;64121;48.666;8.114;2023-07-30T08:47:10;3.17;;;1.70;;
75537;SDS011;64121;48.666;8.114;2023-07-30T08:49:35;3.00;;;1.83;;
75537;SDS011;64121;48.666;8.114;2023-07-30T08:52:01;2.60;;;1.57;;
75537;SDS011;64121;48.666;8.114;2023-07-30T08:54:27;4.13;;;1.63;;
75537;SDS011;64121;48.666;8.114;2023-07-30T08:56:54;2.83;;;1.73;;
75537;SDS011;64121;48.666;8.114;2023-07-30T08:59:21;3.03;;;1.90;;
75537;SDS011;64121;48.666;8.114;2023-07-30T09:01:46;3.35;;;1.60;;
75537;SDS011;64121;48.666;8.114;2023-07-30T09:04:12;2.75;;;1.80;;
75537;SDS011;64121;48.666;8.114;2023-07-30T09:06:38;2.03;;;1.20;;
75537;SDS011;64121;48.666;8.114;2023-07-30T09:09:03;3.60;;;1.47;;
75537;SDS011;64121;48.666;8.114;2023-07-30T09:11:28;2.60;;;1.60;;
75537;SDS011;64121;48.666;8.114;2023-07-30T09:13:53;2.83;;;1.67;;
75537;SDS011;64121;48.666;8.114;2023-07-30T09:16:23;2.53;;;1.35;;
75537;SDS011;64121;48.666;8.114;2023-07-30T09:18:49;2.70;;;1.38;;
75537;SDS011;64121;48.666;8.114;2023-07-30T09:21:14;3.03;;;1.60;;
75537;SDS011;64121;48.666;8.114;2023-07-30T09:23:39;4.20;;;1.50;;
75537;SDS011;64121;48.666;8.114;2023-07-30T09:26:05;2.15;;;1.17;;
75537;SDS011;64121;48.666;8.114;2023-07-30T09:28:30;2.77;;;1.70;;
75537;SDS011;64121;48.666;8.114;2023-07-30T09:30:59;2.87;;;1.80;;
75537;SDS011;64121;48.666;8.114;2023-07-30T09:33:25;3.58;;;1.60;;
75537;SDS011;64121;48.666;8.114;2023-07-30T09:35:51;3.33;;;1.63;;
75537;SDS011;64121;48.666;8.114;2023-07-30T09:38:16;3.50;;;1.80;;
75537;SDS011;64121;48.666;8.114;2023-07-30T09:40:43;3.80;;;1.88;;
75537;SDS011;64121;48.666;8.114;2023-07-30T09:43:08;3.73;;;1.67;;
75537;SDS011;64121;48.666;8.114;2023-07-30T09:45:34;3.63;;;1.70;;
75537;SDS011;64121;48.666;8.114;2023-07-30T09:47:59;3.55;;;1.85;;
75537;SDS011;64121;48.666;8.114;2023-07-30T09:50:27;3.00;;;1.80;;
75537;SDS011;64121;48.666;8.114;2023-07-30T09:52:53;2.60;;;1.60;;
75537;SDS011;64121;48.666;8.114;2023-07-30T09:55:19;3.00;;;1.70;;
75537;SDS011;64121;48.666;8.114;2023-07-30T09:57:44;2.60;;;1.60;;
75537;SDS011;64121;48.666;8.114;2023-07-30T10:00:09;4.10;;;1.40;;
75537;SDS011;64121;48.666;8.114;2023-07-30T10:02:37;3.67;;;1.52;;
75537;SDS011;64121;48.666;8.114;2023-07-30T10:05:03;2.70;;;1.95;;
75537;SDS011;64121;48.666;8.114;2023-07-30T10:07:34;2.85;;;1.80;;
75537;SDS011;64121;48.666;8.114;2023-07-30T10:09:59;2.95;;;1.50;;
75537;SDS011;64121;48.666;8.114;2023-07-30T10:12:28;3.58;;;1.58;;
75537;SDS011;64121;48.666;8.114;2023-07-30T10:14:54;2.78;;;1.60;;
75537;SDS011;64121;48.666;8.114;2023-07-30T10:17:19;3.93;;;1.67;;
75537;SDS011;64121;48.666;8.114;2023-07-30T10:19:46;6.27;;;1.93;;
75537;SDS011;64121;48.666;8.114;2023-07-30T10:22:21;3.47;;;1.80;;
75537;SDS011;64121;48.666;8.114;2023-07-30T10:24:56;3.00;;;1.77;;
75537;SDS011;64121;48.666;8.114;2023-07-30T10:27:23;3.22;;;1.70;;
75537;SDS011;64121;48.666;8.114;2023-07-30T10:29:48;2.90;;;2.10;;
75537;SDS011;64121;48.666;8.114;2023-07-30T10:32:13;3.43;;;2.13;;
75537;SDS011;64121;48.666;8.114;2023-07-30T10:34:43;3.30;;;2.00;;
75537;SDS011;64121;48.666;8.114;2023-07-30T10:37:08;3.05;;;1.85;;
75537;SDS011;64121;48.666;8.114;2023-07-30T10:39:33;3.17;;;1.80;;
75537;SDS011;64121;48.666;8.114;2023-07-30T10:42:00;3.22;;;1.90;;
75537;SDS011;64121;48.666;8.114;2023-07-30T10:44:26;3.13;;;1.88;;
75537;SDS011;64121;48.666;8.114;2023-07-30T10:46:52;4.63;;;1.80;;
75537;SDS011;64121;48.666;8.114;2023-07-30T10:49:17;5.05;;;1.88;;
75537;SDS011;64121;48.666;8.114;2023-07-30T10:51:42;3.53;;;2.00;;
75537;SDS011;64121;48.666;8.114;2023-07-30T10:54:07;4.37;;;1.80;;
75537;SDS011;64121;48.666;8.114;2023-07-30T10:56:34;2.50;;;1.63;;
75537;SDS011;64121;48.666;8.114;2023-07-30T10:59:01;1.90;;;1.27;;
75537;SDS011;64121;48.666;8.114;2023-07-30T11:01:27;2.80;;;1.48;;
75537;SDS011;64121;48.666;8.114;2023-07-30T11:03:53;2.70;;;1.43;;
75537;SDS011;64121;48.666;8.114;2023-07-30T11:06:22;2.55;;;1.20;;
75537;SDS011;64121;48.666;8.114;2023-07-30T11:08:47;4.03;;;2.05;;
75537;SDS011;64121;48.666;8.114;2023-07-30T11:11:12;2.57;;;1.70;;
75537;SDS011;64121;48.666;8.114;2023-07-30T11:13:38;3.40;;;1.60;;
75537;SDS011;64121;48.666;8.114;2023-07-30T11:16:05;2.85;;;1.60;;
75537;SDS011;64121;48.666;8.114;2023-07-30T11:18:30;2.22;;;1.52;;
75537;SDS011;64121;48.666;8.114;2023-07-30T11:21:01;3.53;;;1.70;;
75537;SDS011;64121;48.666;8.114;2023-07-30T11:23:27;2.72;;;1.65;;
75537;SDS011;64121;48.666;8.114;2023-07-30T11:25:52;4.17;;;2.03;;
75537;SDS011;64121;48.666;8.114;2023-07-30T11:28:27;2.87;;;1.80;;
75537;SDS011;64121;48.666;8.114;2023-07-30T11:30:52;3.92;;;1.98;;
75537;SDS011;64121;48.666;8.114;2023-07-30T11:33:19;2.77;;;1.63;;
75537;SDS011;64121;48.666;8.114;2023-07-30T11:35:44;4.78;;;2.10;;
75537;SDS011;64121;48.666;8.114;2023-07-30T11:38:09;3.17;;;1.70;;
75537;SDS011;64121;48.666;8.114;2023-07-30T11:40:34;4.07;;;1.70;;
75537;SDS011;64121;48.666;8.114;2023-07-30T11:43:00;4.47;;;1.47;;
75537;SDS011;64121;48.666;8.114;2023-07-30T11:45:25;5.20;;;1.40;;
75537;SDS011;64121;48.666;8.114;2023-07-30T11:47:50;4.88;;;1.50;;
75537;SDS011;64121;48.666;8.114;2023-07-30T11:50:17;2.03;;;1.37;;
75537;SDS011;64121;48.666;8.114;2023-07-30T11:52:52;4.15;;;1.48;;
75537;SDS011;64121;48.666;8.114;2023-07-30T11:55:17;4.05;;;1.50;;
75537;SDS011;64121;48.666;8.114;2023-07-30T11:57:42;3.30;;;1.37;;
75537;SDS011;64121;48.666;8.114;2023-07-30T12:00:08;3.20;;;1.43;;
75537;SDS011;64121;48.666;8.114;2023-07-30T12:02:33;4.32;;;1.50;;
75537;SDS011;64121;48.666;8.114;2023-07-30T12:04:59;3.53;;;1.40;;
75537;SDS011;64121;48.666;8.114;2023-07-30T12:07:25;3.50;;;1.77;;
75537;SDS011;64121;48.666;8.114;2023-07-30T12:09:50;2.33;;;1.27;;
75537;SDS011;64121;48.666;8.114;2023-07-30T12:12:15;4.17;;;1.53;;
75537;SDS011;64121;48.666;8.114;2023-07-30T12:14:44;2.23;;;1.23;;
75537;SDS011;64121;48.666;8.114;2023-07-30T12:17:09;3.40;;;1.30;;
75537;SDS011;64121;48.666;8.114;2023-07-30T12:19:34;3.13;;;1.47;;
75537;SDS011;64121;48.666;8.114;2023-07-30T12:21:59;3.00;;;1.60;;
75537;SDS011;64121;48.666;8.114;2023-07-30T12:24:26;3.07;;;1.40;;
75537;SDS011;64121;48.666;8.114;2023-07-30T12:26:51;2.72;;;1.30;;
75537;SDS011;64121;48.666;8.114;2023-07-30T12:29:16;4.10;;;1.40;;
75537;SDS011;64121;48.666;8.114;2023-07-30T12:31:42;4.00;;;1.50;;
75537;SDS011;64121;48.666;8.114;2023-07-30T12:34:07;6.13;;;1.57;;
75537;SDS011;64121;48.666;8.114;2023-07-30T12:36:32;2.70;;;1.30;;
75537;SDS011;64121;48.666;8.114;2023-07-30T12:38:57;4.00;;;1.60;;
75537;SDS011;64121;48.666;8.114;2023-07-30T12:41:24;3.63;;;1.47;;
75537;SDS011;64121;48.666;8.114;2023-07-30T12:43:49;4.97;;;1.50;;
75537;SDS011;64121;48.666;8.114;2023-07-30T12:46:14;3.03;;;1.47;;
75537;SDS011;64121;48.666;8.114;2023-07-30T12:48:39;4.57;;;1.40;;
75537;SDS011;64121;48.666;8.114;2023-07-30T12:51:04;3.63;;;1.60;;
75537;SDS011;64121;48.666;8.114;2023-07-30T12:53:29;5.07;;;1.30;;
75537;SDS011;64121;48.666;8.114;2023-07-30T12:55:54;2.70;;;1.50;;
75537;SDS011;64121;48.666;8.114;2023-07-30T12:58:21;3.10;;;1.30;;
75537;SDS011;64121;48.666;8.114;2023-07-30T13:00:46;3.80;;;1.60;;
75537;SDS011;64121;48.666;8.114;2023-07-30T13:03:11;4.27;;;1.57;;
75537;SDS011;64121;48.666;8.114;2023-07-30T13:05:37;3.43;;;1.60;;
75537;SDS011;64121;48.666;8.114;2023-07-30T13:08:02;4.20;;;1.50;;
75537;SDS011;64121;48.666;8.114;2023-07-30T13:10:27;3.30;;;1.30;;
75537;SDS011;64121;48.666;8.114;2023-07-30T13:12:52;3.00;;;1.30;;
75537;SDS011;64121;48.666;8.114;2023-07-30T13:15:19;4.23;;;1.60;;
75537;SDS011;64121;48.666;8.114;2023-07-30T13:17:44;4.78;;;1.30;;
75537;SDS011;64121;48.666;8.114;2023-07-30T13:20:10;5.60;;;1.77;;
75537;SDS011;64121;48.666;8.114;2023-07-30T13:22:35;4.25;;;1.50;;
75537;SDS011;64121;48.666;8.114;2023-07-30T13:25:00;4.30;;;1.63;;
75537;SDS011;64121;48.666;8.114;2023-07-30T13:27:25;2.90;;;1.50;;
75537;SDS011;64121;48.666;8.114;2023-07-30T13:29:50;2.27;;;1.00;;
75537;SDS011;64121;48.666;8.114;2023-07-30T13:32:17;3.03;;;1.27;;
75537;SDS011;64121;48.666;8.114;2023-07-30T13:34:42;3.05;;;1.35;;
75537;SDS011;64121;48.666;8.114;2023-07-30T13:37:08;4.70;;;1.30;;
75537;SDS011;64121;48.666;8.114;2023-07-30T13:39:33;3.10;;;1.33;;
75537;SDS011;64121;48.666;8.114;2023-07-30T13:41:58;4.07;;;1.37;;
75537;SDS011;64121;48.666;8.114;2023-07-30T13:44:23;2.30;;;1.17;;
75537;SDS011;64121;48.666;8.114;2023-07-30T13:46:48;3.10;;;1.33;;
75537;SDS011;64121;48.666;8.114;2023-07-30T13:49:15;3.90;;;1.53;;
75537;SDS011;64121;48.666;8.114;2023-07-30T13:51:40;2.42;;;1.13;;
75537;SDS011;64121;48.666;8.114;2023-07-30T13:54:05;2.60;;;1.33;;
75537;SDS011;64121;48.666;8.114;2023-07-30T13:56:30;4.40;;;1.87;;
75537;SDS011;64121;48.666;8.114;2023-07-30T13:58:56;5.57;;;1.67;;
75537;SDS011;64121;48.666;8.114;2023-07-30T14:01:21;2.17;;;1.08;;
75537;SDS011;64121;48.666;8.114;2023-07-30T14:03:46;2.90;;;1.20;;
75537;SDS011;64121;48.666;8.114;2023-07-30T14:06:13;3.37;;;1.00;;
75537;SDS011;64121;48.666;8.114;2023-07-30T14:08:38;2.58;;;1.27;;
75537;SDS011;64121;48.666;8.114;2023-07-30T14:11:03;5.70;;;1.00;;
75537;SDS011;64121;48.666;8.114;2023-07-30T14:13:28;2.93;;;1.10;;
75537;SDS011;64121;48.666;8.114;2023-07-30T14:15:54;4.20;;;1.20;;
75537;SDS011;64121;48.666;8.114;2023-07-30T14:18:19;4.07;;;0.97;;
75537;SDS011;64121;48.666;8.114;2023-07-30T14:20:44;2.60;;;1.07;;
75537;SDS011;64121;48.666;8.114;2023-07-30T14:23:10;2.93;;;1.23;;
75537;SDS011;64121;48.666;8.114;2023-07-30T14:25:36;2.85;;;1.00;;
75537;SDS011;64121;48.666;8.114;2023-07-30T14:28:01;3.63;;;1.50;;
75537;SDS011;64121;48.666;8.114;2023-07-30T14:30:26;2.57;;;1.03;;
75537;SDS011;64121;48.666;8.114;2023-07-30T14:32:51;3.30;;;1.00;;
75537;SDS011;64121;48.666;8.114;2023-07-30T14:35:16;2.83;;;1.10;;
75537;SDS011;64121;48.666;8.114;2023-07-30T14:37:42;2.17;;;1.00;;